Terminal Aerodrome Forecast
Issued by NWS Wilmington, OH

Current Version | Previous Version | Text Only | Print | Product List | Glossary Off
Versions: 1 2 3 4 5 6 7 8 9 10 11 12 13 14 15 16 17 18 19 20 21 22

000
FTUS41 KILN 201100
TAFDAY
TAF
KDAY 201120Z 2012/2112 00000KT 1/4SM FG VV001
     FM201300 12005KT P6SM FEW001 SCT045
     FM201800 13006KT P6SM BKN025
     FM210100 VRB03KT 4SM BR OVC025=

USA.gov is the U.S. government's official web portal to all federal, state and local government web resources and services.